Time;durP1;ratioP1;P1;durP2;ratioP2;P2;SDS_P1;SDS_P2;PMS_P1;PMS_P2;Temp;Humidity;BMP_temperature;BMP_pressure;BME280_temperature;BME280_humidity;BME280_pressure;Samples;Min_cycle;Max_cycle;Signal;HPM_P1;HPM_P2
2021/11/28 00:01:48;;;;;;;;;;;4.10;99.90;;;;;;5007357;28;20303;-70
2021/11/28 00:04:14;;;;;;;;;;;4.10;99.90;;;;;;5009100;28;19936;-69
2021/11/28 00:06:40;;;;;;;;;;;4.20;99.90;;;;;;5016594;28;20269;-69
2021/11/28 00:09:27;;;;;;;;;;;4.20;99.90;;;;;;5028876;28;19913;-69
2021/11/28 00:12:12;;;;;;;;;;;4.10;99.90;;;;;;5013265;28;19917;-69
2021/11/28 00:14:38;;;;;;;;;;;4.10;99.90;;;;;;5007357;28;19917;-70
2021/11/28 00:17:04;;;;;;;;;;;4.10;99.90;;;;;;5007799;28;20300;-69
2021/11/28 00:19:29;;;;;;;;;;;4.10;99.90;;;;;;5005624;28;19920;-70
2021/11/28 00:21:55;;;;;;;;;;;4.10;99.90;;;;;;5007779;28;20163;-71
2021/11/28 00:24:20;;;;;;;;;;;4.10;99.90;;;;;;5010041;28;19921;-69
2021/11/28 00:26:47;;;;;;;;;;;4.20;99.90;;;;;;5007536;28;19920;-70
2021/11/28 00:29:13;;;;;;;;;;;4.20;99.90;;;;;;5006914;28;19917;-68
2021/11/28 00:31:39;;;;;;;;;;;4.10;99.90;;;;;;5007211;28;19910;-69
2021/11/28 00:34:04;;;;;;;;;;;4.00;99.90;;;;;;5013283;28;19954;-70
2021/11/28 00:36:30;;;;;;;;;;;4.00;99.90;;;;;;5028483;28;19909;-69
2021/11/28 00:38:55;;;;;;;;;;;4.10;99.90;;;;;;5027454;28;19924;-69
2021/11/28 00:41:21;;;;;;;;;;;4.00;99.90;;;;;;5028426;28;20026;-70
2021/11/28 00:43:46;;;;;;;;;;;4.00;99.90;;;;;;5024931;28;19913;-70
2021/11/28 00:46:12;;;;;;;;;;;3.90;99.90;;;;;;5008249;28;19913;-70
2021/11/28 00:48:41;;;;;;;;;;;3.90;99.90;;;;;;5007985;28;19917;-69
2021/11/28 00:53:41;;;;;;;;;;;3.80;99.90;;;;;;5009328;28;19909;-70
2021/11/28 00:56:07;;;;;;;;;;;3.80;99.90;;;;;;5007531;28;19921;-69
2021/11/28 00:58:32;;;;;;;;;;;3.80;99.90;;;;;;5008447;28;19971;-71
2021/11/28 01:00:58;;;;;;;;;;;3.80;99.90;;;;;;5007907;28;19918;-68
2021/11/28 01:03:23;;;;;;;;;;;3.80;99.90;;;;;;5008626;28;20415;-68
2021/11/28 01:05:49;;;;;;;;;;;3.80;99.90;;;;;;5008277;28;20277;-70
2021/11/28 01:08:15;;;;;;;;;;;3.80;99.90;;;;;;5008062;28;20008;-69
2021/11/28 01:10:41;;;;;;;;;;;3.80;99.90;;;;;;5010603;28;19996;-69
2021/11/28 01:13:06;;;;;;;;;;;3.80;99.90;;;;;;5024550;28;20087;-68
2021/11/28 01:15:32;;;;;;;;;;;3.80;99.90;;;;;;5029422;28;19916;-70
2021/11/28 01:17:57;;;;;;;;;;;3.80;99.90;;;;;;5034976;28;20437;-69
2021/11/28 01:20:23;;;;;;;;;;;3.80;99.90;;;;;;5024919;28;19922;-69
2021/11/28 01:22:48;;;;;;;;;;;3.70;99.90;;;;;;5016188;28;19917;-71
2021/11/28 01:25:14;;;;;;;;;;;3.80;99.90;;;;;;5023315;28;19967;-69
2021/11/28 01:27:40;;;;;;;;;;;3.70;99.90;;;;;;5026111;28;19909;-70
2021/11/28 01:30:06;;;;;;;;;;;3.70;99.90;;;;;;5027319;28;20075;-71
2021/11/28 01:32:32;;;;;;;;;;;3.80;99.90;;;;;;5014674;28;19917;-70
2021/11/28 01:34:57;;;;;;;;;;;3.80;99.90;;;;;;5014084;28;20004;-70
2021/11/28 01:37:23;;;;;;;;;;;3.80;99.90;;;;;;5004667;28;19916;-70
2021/11/28 01:39:48;;;;;;;;;;;3.80;99.90;;;;;;5013747;28;20494;-68
2021/11/28 01:42:14;;;;;;;;;;;3.80;99.90;;;;;;5014400;28;19948;-69
2021/11/28 01:44:40;;;;;;;;;;;3.80;99.90;;;;;;5014406;28;19909;-69
2021/11/28 01:47:05;;;;;;;;;;;3.80;99.90;;;;;;5014614;28;19909;-70
2021/11/28 01:49:31;;;;;;;;;;;3.80;99.90;;;;;;5014584;28;20313;-69
2021/11/28 01:51:56;;;;;;;;;;;3.80;99.90;;;;;;5013816;28;20440;-69
2021/11/28 01:54:22;;;;;;;;;;;3.80;99.90;;;;;;5014146;28;19909;-69
2021/11/28 01:56:48;;;;;;;;;;;3.80;99.90;;;;;;5014375;28;19996;-70
2021/11/28 01:59:14;;;;;;;;;;;3.80;99.90;;;;;;5013812;28;19921;-70
2021/11/28 02:01:40;;;;;;;;;;;3.80;99.90;;;;;;5014959;28;19980;-69
2021/11/28 02:04:07;;;;;;;;;;;3.80;99.90;;;;;;5014205;28;20313;-70
2021/11/28 02:06:33;;;;;;;;;;;3.90;99.90;;;;;;5014396;28;20289;-70
2021/11/28 02:08:59;;;;;;;;;;;3.90;99.90;;;;;;5013131;28;20005;-71
2021/11/28 02:11:25;;;;;;;;;;;4.00;99.90;;;;;;5024122;28;20275;-68
2021/11/28 02:13:51;;;;;;;;;;;4.00;99.90;;;;;;5013916;28;19920;-70
2021/11/28 02:16:16;;;;;;;;;;;4.10;99.90;;;;;;5013921;28;20265;-68
2021/11/28 02:18:42;;;;;;;;;;;4.00;99.90;;;;;;5014094;28;19920;-69
2021/11/28 02:21:08;;;;;;;;;;;3.90;99.90;;;;;;5013531;28;19921;-70
2021/11/28 02:23:35;;;;;;;;;;;3.80;99.90;;;;;;5010639;28;19914;-69
2021/11/28 02:26:02;;;;;;;;;;;3.80;99.90;;;;;;5027269;28;19913;-69
2021/11/28 02:28:28;;;;;;;;;;;3.80;99.90;;;;;;5026185;28;20010;-69
2021/11/28 02:30:54;;;;;;;;;;;3.80;99.90;;;;;;5010667;28;20401;-70
2021/11/28 02:33:19;;;;;;;;;;;3.90;99.90;;;;;;5010778;28;19933;-68
2021/11/28 02:35:45;;;;;;;;;;;3.90;99.90;;;;;;5010898;28;19910;-69
2021/11/28 02:38:10;;;;;;;;;;;3.90;99.90;;;;;;5011513;28;20540;-69
2021/11/28 02:40:37;;;;;;;;;;;4.00;99.90;;;;;;5022152;28;20375;-69
2021/11/28 02:43:02;;;;;;;;;;;3.90;99.90;;;;;;5031257;28;19916;-69
2021/11/28 02:45:28;;;;;;;;;;;4.00;99.90;;;;;;5027023;28;19909;-69
2021/11/28 02:47:56;;;;;;;;;;;4.00;99.90;;;;;;5009958;28;19944;-68
2021/11/28 02:50:22;;;;;;;;;;;3.90;99.90;;;;;;5010418;28;19914;-67
2021/11/28 02:52:53;;;;;;;;;;;3.90;99.90;;;;;;5010632;28;19916;-68
2021/11/28 02:55:22;;;;;;;;;;;3.90;99.90;;;;;;5012177;28;20286;-70
2021/11/28 02:57:48;;;;;;;;;;;3.90;99.90;;;;;;5010469;28;19964;-67
2021/11/28 03:00:14;;;;;;;;;;;3.90;99.90;;;;;;5008717;28;20356;-69
2021/11/28 03:02:39;;;;;;;;;;;3.90;99.90;;;;;;5009993;28;19920;-69
2021/11/28 03:05:05;;;;;;;;;;;3.90;99.90;;;;;;5009604;28;19925;-69
2021/11/28 03:07:30;;;;;;;;;;;3.90;99.90;;;;;;5025212;28;19971;-69
2021/11/28 03:09:56;;;;;;;;;;;3.90;99.90;;;;;;5029511;28;20366;-71
2021/11/28 03:12:21;;;;;;;;;;;4.00;99.90;;;;;;5030371;28;19924;-68
2021/11/28 03:14:47;;;;;;;;;;;4.00;99.90;;;;;;5029959;28;19909;-68
2021/11/28 03:17:12;;;;;;;;;;;4.00;99.90;;;;;;5029635;28;19909;-68
2021/11/28 03:19:39;;;;;;;;;;;4.00;99.90;;;;;;5026790;28;20245;-68
2021/11/28 03:22:04;;;;;;;;;;;4.00;99.90;;;;;;5010106;28;19941;-69
2021/11/28 03:24:30;;;;;;;;;;;3.90;99.90;;;;;;5014717;28;19963;-67
2021/11/28 03:26:55;;;;;;;;;;;4.00;99.90;;;;;;5029523;28;20369;-68
2021/11/28 03:29:22;;;;;;;;;;;3.90;99.90;;;;;;5029585;28;19917;-69
2021/11/28 03:31:50;;;;;;;;;;;4.00;99.90;;;;;;5022696;28;20016;-69
2021/11/28 03:34:17;;;;;;;;;;;4.00;99.90;;;;;;5009285;28;20017;-68
2021/11/28 03:36:48;;;;;;;;;;;4.00;99.90;;;;;;5009035;28;20267;-68
2021/11/28 03:39:15;;;;;;;;;;;4.00;99.90;;;;;;5009867;28;19918;-70
2021/11/28 03:41:42;;;;;;;;;;;4.00;99.90;;;;;;5009333;28;19976;-68
2021/11/28 03:44:07;;;;;;;;;;;3.90;99.90;;;;;;5009348;28;19986;-67
2021/11/28 03:46:32;;;;;;;;;;;4.00;99.90;;;;;;5009565;28;20377;-69
2021/11/28 03:48:59;;;;;;;;;;;4.00;99.90;;;;;;5009229;28;19917;-69
2021/11/28 03:51:25;;;;;;;;;;;4.00;99.90;;;;;;5008783;28;19910;-69
2021/11/28 03:53:50;;;;;;;;;;;4.00;99.90;;;;;;5007902;28;19914;-67
2021/11/28 03:56:16;;;;;;;;;;;4.10;99.90;;;;;;5011245;28;20079;-67
2021/11/28 03:58:41;;;;;;;;;;;4.10;99.90;;;;;;5023341;28;19917;-68
2021/11/28 04:01:08;;;;;;;;;;;4.10;99.90;;;;;;5031726;28;20348;-67
2021/11/28 04:03:34;;;;;;;;;;;4.10;99.90;;;;;;5028541;28;20348;-68
2021/11/28 04:06:00;;;;;;;;;;;4.10;99.90;;;;;;5025566;28;20277;-67
2021/11/28 04:08:25;;;;;;;;;;;4.00;99.90;;;;;;5009073;28;19917;-68
2021/11/28 04:10:51;;;;;;;;;;;4.00;99.90;;;;;;5008725;28;19921;-67
2021/11/28 04:13:17;;;;;;;;;;;4.00;99.90;;;;;;5009259;28;19916;-66
2021/11/28 04:15:42;;;;;;;;;;;4.00;99.90;;;;;;5027498;28;20366;-68
2021/11/28 04:18:08;;;;;;;;;;;3.90;99.90;;;;;;5028532;28;19909;-66
2021/11/28 04:20:34;;;;;;;;;;;3.90;99.90;;;;;;5028013;28;19976;-68
2021/11/28 04:22:59;;;;;;;;;;;3.90;99.90;;;;;;5043751;28;19909;-68
2021/11/28 04:25:25;;;;;;;;;;;3.90;99.90;;;;;;5027784;28;19934;-67
2021/11/28 04:27:50;;;;;;;;;;;3.80;99.90;;;;;;5028828;28;19963;-68
2021/11/28 04:30:16;;;;;;;;;;;3.90;99.90;;;;;;5029276;28;19963;-67
2021/11/28 04:32:41;;;;;;;;;;;3.80;99.90;;;;;;5031206;28;20420;-67
2021/11/28 04:35:07;;;;;;;;;;;3.80;99.90;;;;;;5010761;28;19910;-69
2021/11/28 04:37:33;;;;;;;;;;;3.80;99.90;;;;;;5011697;28;19941;-67
2021/11/28 04:39:58;;;;;;;;;;;3.70;99.90;;;;;;5019775;28;19913;-68
2021/11/28 04:42:24;;;;;;;;;;;3.70;99.90;;;;;;5027731;28;19913;-68
2021/11/28 04:44:50;;;;;;;;;;;3.70;99.90;;;;;;5027839;28;19909;-67
2021/11/28 04:47:18;;;;;;;;;;;3.60;99.90;;;;;;5027763;28;20012;-69
2021/11/28 04:49:43;;;;;;;;;;;3.60;99.90;;;;;;5027972;28;20217;-67
2021/11/28 04:52:09;;;;;;;;;;;3.60;99.90;;;;;;5027911;28;19975;-68
2021/11/28 04:54:34;;;;;;;;;;;3.60;99.90;;;;;;5028355;28;19913;-68
2021/11/28 04:57:00;;;;;;;;;;;3.70;99.90;;;;;;5027846;28;19924;-67
2021/11/28 04:59:25;;;;;;;;;;;3.60;99.90;;;;;;5027874;28;20297;-69
2021/11/28 05:01:51;;;;;;;;;;;3.60;99.90;;;;;;5027702;28;19909;-68
2021/11/28 05:04:16;;;;;;;;;;;3.60;99.90;;;;;;5027970;28;20033;-70
2021/11/28 05:06:42;;;;;;;;;;;3.60;99.90;;;;;;5019785;28;19914;-68
2021/11/28 05:09:07;;;;;;;;;;;3.60;99.90;;;;;;5008855;28;19910;-68
2021/11/28 05:11:33;;;;;;;;;;;3.60;99.90;;;;;;5008158;28;19909;-67
2021/11/28 05:13:58;;;;;;;;;;;3.60;99.90;;;;;;5008110;28;20009;-68
2021/11/28 05:16:24;;;;;;;;;;;3.60;99.90;;;;;;5007808;28;20289;-68
2021/11/28 05:18:50;;;;;;;;;;;3.50;99.90;;;;;;5007959;28;20297;-69
2021/11/28 05:21:15;;;;;;;;;;;3.50;99.90;;;;;;5007362;28;19909;-68
2021/11/28 05:23:40;;;;;;;;;;;3.50;99.90;;;;;;5007890;28;19909;-68
2021/11/28 05:26:06;;;;;;;;;;;3.40;99.90;;;;;;5007809;28;19964;-69
2021/11/28 05:28:31;;;;;;;;;;;3.40;99.90;;;;;;5007898;28;19925;-68
2021/11/28 05:30:57;;;;;;;;;;;3.40;99.90;;;;;;5008297;28;19910;-69
2021/11/28 05:33:22;;;;;;;;;;;3.40;99.90;;;;;;5006926;28;19917;-67
2021/11/28 05:35:48;;;;;;;;;;;3.30;99.90;;;;;;5006800;28;19924;-67
2021/11/28 05:38:13;;;;;;;;;;;3.40;99.90;;;;;;5006440;28;19921;-69
2021/11/28 05:40:39;;;;;;;;;;;3.40;99.90;;;;;;5005997;28;20398;-68
2021/11/28 05:43:04;;;;;;;;;;;3.40;99.90;;;;;;5007354;28;20124;-68
2021/11/28 05:45:30;;;;;;;;;;;3.40;99.90;;;;;;5007521;28;20045;-68
2021/11/28 05:47:56;;;;;;;;;;;3.40;99.90;;;;;;5006360;28;20389;-68
2021/11/28 05:50:22;;;;;;;;;;;3.40;99.90;;;;;;5005955;28;19910;-68
2021/11/28 05:52:48;;;;;;;;;;;3.40;99.90;;;;;;5006351;28;19909;-67
2021/11/28 05:55:14;;;;;;;;;;;3.30;99.90;;;;;;5003219;28;20002;-68
2021/11/28 05:57:40;;;;;;;;;;;3.40;99.90;;;;;;5006093;28;20000;-68
2021/11/28 06:00:06;;;;;;;;;;;3.40;99.90;;;;;;5009989;28;19914;-68
2021/11/28 06:02:32;;;;;;;;;;;3.40;99.90;;;;;;5009895;28;19910;-68
2021/11/28 06:04:57;;;;;;;;;;;3.40;99.90;;;;;;5011757;28;20266;-68
2021/11/28 06:07:23;;;;;;;;;;;3.40;99.90;;;;;;5011195;28;20373;-67
2021/11/28 06:09:48;;;;;;;;;;;3.40;99.90;;;;;;5010687;28;19910;-67
2021/11/28 06:12:14;;;;;;;;;;;3.50;99.90;;;;;;5009561;28;19917;-67
2021/11/28 06:14:39;;;;;;;;;;;3.40;99.90;;;;;;5008783;28;19922;-68
2021/11/28 06:17:05;;;;;;;;;;;3.30;99.90;;;;;;5011739;28;19914;-69
2021/11/28 06:19:30;;;;;;;;;;;3.30;99.90;;;;;;5010798;28;19918;-68
2021/11/28 06:21:56;;;;;;;;;;;3.30;99.90;;;;;;5007492;28;19980;-67
2021/11/28 06:24:21;;;;;;;;;;;3.30;99.90;;;;;;5008085;28;20005;-66
2021/11/28 06:26:47;;;;;;;;;;;3.10;99.90;;;;;;5008181;28;19910;-68
2021/11/28 06:29:12;;;;;;;;;;;3.10;99.90;;;;;;5007083;28;19991;-67
2021/11/28 06:31:38;;;;;;;;;;;3.00;99.90;;;;;;5008900;28;20540;-67
2021/11/28 06:34:03;;;;;;;;;;;3.00;99.90;;;;;;5006520;28;20445;-68
2021/11/28 06:36:29;;;;;;;;;;;3.00;99.90;;;;;;5009578;28;19910;-67
2021/11/28 06:38:54;;;;;;;;;;;3.10;99.90;;;;;;5008922;28;19909;-67
2021/11/28 06:41:24;;;;;;;;;;;3.10;99.90;;;;;;5009117;28;20012;-68
2021/11/28 06:43:50;;;;;;;;;;;3.10;99.90;;;;;;5006469;28;20317;-68
2021/11/28 06:46:15;;;;;;;;;;;3.10;99.90;;;;;;5009375;28;19968;-68
2021/11/28 06:48:40;;;;;;;;;;;3.20;99.90;;;;;;5008655;28;19909;-67
2021/11/28 06:51:06;;;;;;;;;;;3.10;99.90;;;;;;5008618;28;19916;-68
2021/11/28 06:53:31;;;;;;;;;;;3.10;99.90;;;;;;5008856;28;20028;-68
2021/11/28 06:55:57;;;;;;;;;;;3.20;99.90;;;;;;5009391;28;19916;-68
2021/11/28 06:58:23;;;;;;;;;;;3.10;99.90;;;;;;5010426;28;20126;-67
2021/11/28 07:00:48;;;;;;;;;;;3.10;99.90;;;;;;5010802;28;20325;-68
2021/11/28 07:03:14;;;;;;;;;;;3.10;99.90;;;;;;5014465;28;19918;-68
2021/11/28 07:05:42;;;;;;;;;;;3.10;99.90;;;;;;5019618;28;19910;-66
2021/11/28 07:08:08;;;;;;;;;;;3.10;99.90;;;;;;4991508;28;20389;-68
2021/11/28 07:10:34;;;;;;;;;;;3.00;99.90;;;;;;4991629;28;19938;-67
2021/11/28 07:12:59;;;;;;;;;;;2.90;99.90;;;;;;4991306;28;19909;-68
2021/11/28 07:15:25;;;;;;;;;;;2.90;99.90;;;;;;4998845;28;20198;-67
2021/11/28 07:17:50;;;;;;;;;;;2.80;99.90;;;;;;5011225;28;19933;-67
2021/11/28 07:20:15;;;;;;;;;;;2.80;99.90;;;;;;5008484;28;20298;-67
2021/11/28 07:22:41;;;;;;;;;;;2.90;99.90;;;;;;5010408;28;19924;-67
2021/11/28 07:25:07;;;;;;;;;;;3.10;99.90;;;;;;5026798;28;20275;-67
2021/11/28 07:27:32;;;;;;;;;;;3.20;99.90;;;;;;5010899;28;20291;-67
2021/11/28 07:30:00;;;;;;;;;;;3.30;99.90;;;;;;5013433;28;19920;-68
2021/11/28 07:32:26;;;;;;;;;;;3.30;99.90;;;;;;5016550;28;19972;-68
2021/11/28 07:34:51;;;;;;;;;;;3.40;99.90;;;;;;5017547;28;19909;-67
2021/11/28 07:37:17;;;;;;;;;;;3.40;99.90;;;;;;5012339;28;20390;-67
2021/11/28 07:39:42;;;;;;;;;;;3.50;99.90;;;;;;5011559;28;19921;-67
2021/11/28 07:42:08;;;;;;;;;;;3.50;99.90;;;;;;5013698;28;19955;-67
2021/11/28 07:44:34;;;;;;;;;;;3.60;99.90;;;;;;5013987;28;19917;-68
2021/11/28 07:47:00;;;;;;;;;;;3.60;99.90;;;;;;5015390;28;19910;-68
2021/11/28 07:49:25;;;;;;;;;;;3.60;99.90;;;;;;5013972;28;19910;-70
2021/11/28 07:51:52;;;;;;;;;;;3.60;99.90;;;;;;5017038;28;19956;-67
2021/11/28 07:54:17;;;;;;;;;;;3.60;99.90;;;;;;5016103;28;19920;-67
2021/11/28 07:56:44;;;;;;;;;;;3.60;99.90;;;;;;5014669;28;19917;-69
2021/11/28 07:59:10;;;;;;;;;;;3.70;99.90;;;;;;5008506;28;20364;-69
2021/11/28 08:01:38;;;;;;;;;;;3.80;99.90;;;;;;5014119;28;19925;-69
2021/11/28 08:04:04;;;;;;;;;;;3.80;99.90;;;;;;5014590;28;20204;-67
2021/11/28 08:06:29;;;;;;;;;;;3.70;99.90;;;;;;5025826;28;20230;-67
2021/11/28 08:08:55;;;;;;;;;;;3.60;99.90;;;;;;5006073;28;20233;-69
2021/11/28 08:11:20;;;;;;;;;;;3.50;99.90;;;;;;5012608;28;19914;-68
2021/11/28 08:13:48;;;;;;;;;;;3.60;99.90;;;;;;5009785;28;19913;-68
2021/11/28 08:16:14;;;;;;;;;;;3.80;99.90;;;;;;5021849;28;19913;-68
2021/11/28 08:18:40;;;;;;;;;;;4.10;99.90;;;;;;5010030;28;19910;-69
2021/11/28 08:21:05;;;;;;;;;;;4.10;99.90;;;;;;5009965;28;19991;-67
2021/11/28 08:23:31;;;;;;;;;;;4.00;99.90;;;;;;5014485;28;19916;-69
2021/11/28 08:25:56;;;;;;;;;;;3.90;99.90;;;;;;5011423;28;19968;-68
2021/11/28 08:28:23;;;;;;;;;;;3.90;99.90;;;;;;5018445;28;19920;-67
2021/11/28 08:30:49;;;;;;;;;;;3.90;99.90;;;;;;5015855;28;20063;-67
2021/11/28 08:33:14;;;;;;;;;;;4.00;99.90;;;;;;5010522;28;20437;-67
2021/11/28 08:35:43;;;;;;;;;;;4.10;99.90;;;;;;5007275;28;19914;-70
2021/11/28 08:38:08;;;;;;;;;;;4.20;99.90;;;;;;5009147;28;19910;-68
2021/11/28 08:40:36;;;;;;;;;;;4.20;99.90;;;;;;5010828;28;19918;-66
2021/11/28 08:43:03;;;;;;;;;;;4.20;99.90;;;;;;5009148;28;19988;-67
2021/11/28 08:45:28;;;;;;;;;;;4.30;99.90;;;;;;5009947;28;19917;-68
2021/11/28 08:47:54;;;;;;;;;;;4.30;99.90;;;;;;5009292;28;19941;-68
2021/11/28 08:50:22;;;;;;;;;;;4.20;99.90;;;;;;5008471;28;19913;-68
2021/11/28 08:52:47;;;;;;;;;;;4.20;99.90;;;;;;5008356;28;20295;-67
2021/11/28 08:55:14;;;;;;;;;;;4.10;99.90;;;;;;5007621;28;20208;-68
2021/11/28 08:57:39;;;;;;;;;;;4.10;99.90;;;;;;5012708;28;19921;-68
2021/11/28 09:00:05;;;;;;;;;;;4.20;99.90;;;;;;5008119;28;19921;-68
2021/11/28 09:02:33;;;;;;;;;;;4.20;99.90;;;;;;5008845;28;19924;-68
2021/11/28 09:04:59;;;;;;;;;;;4.20;99.90;;;;;;5023465;28;20292;-68
2021/11/28 09:07:24;;;;;;;;;;;4.20;99.90;;;;;;5010499;28;19937;-68
2021/11/28 09:09:50;;;;;;;;;;;4.20;99.90;;;;;;5009296;28;20000;-68
2021/11/28 09:12:15;;;;;;;;;;;4.10;99.90;;;;;;5007256;28;21295;-69
2021/11/28 09:14:41;;;;;;;;;;;4.10;99.90;;;;;;5006438;28;19928;-71
2021/11/28 09:17:06;;;;;;;;;;;4.10;99.90;;;;;;5007550;28;20160;-68
2021/11/28 09:19:47;;;;;;;;;;;4.10;99.90;;;;;;5005802;28;19990;-63
2021/11/28 09:22:22;;;;;;;;;;;4.10;99.90;;;;;;5005108;28;19918;-63
2021/11/28 09:24:48;;;;;;;;;;;4.10;99.90;;;;;;5010818;28;19909;-63
2021/11/28 09:27:14;;;;;;;;;;;4.10;99.90;;;;;;5006738;28;19914;-61
2021/11/28 09:29:41;;;;;;;;;;;4.10;99.90;;;;;;5005996;28;20553;-62
2021/11/28 09:32:08;;;;;;;;;;;4.10;99.90;;;;;;5007370;28;19917;-61
2021/11/28 09:34:33;;;;;;;;;;;4.10;99.90;;;;;;5010050;28;19917;-62
2021/11/28 09:36:59;;;;;;;;;;;4.10;99.90;;;;;;5004730;28;19913;-65
2021/11/28 09:39:25;;;;;;;;;;;4.10;99.90;;;;;;5008590;28;19921;-62
2021/11/28 09:41:51;;;;;;;;;;;4.10;99.90;;;;;;5009297;28;19922;-61
2021/11/28 09:44:17;;;;;;;;;;;4.10;99.90;;;;;;5008027;28;19916;-63
2021/11/28 09:46:44;;;;;;;;;;;4.10;99.90;;;;;;5010352;28;20379;-62
2021/11/28 09:49:09;;;;;;;;;;;4.10;99.90;;;;;;5006050;28;19917;-62
2021/11/28 09:51:35;;;;;;;;;;;4.10;99.90;;;;;;5009006;28;20400;-62
2021/11/28 09:54:04;;;;;;;;;;;4.10;99.90;;;;;;5008975;28;19943;-62
2021/11/28 09:56:34;;;;;;;;;;;4.10;99.90;;;;;;5008529;28;20296;-62
2021/11/28 09:59:02;;;;;;;;;;;4.00;99.90;;;;;;5009137;28;20293;-63
2021/11/28 10:01:29;;;;;;;;;;;4.00;99.90;;;;;;5013738;28;20194;-63
2021/11/28 10:03:55;;;;;;;;;;;4.00;99.90;;;;;;5010307;28;19925;-61
2021/11/28 10:06:20;;;;;;;;;;;4.10;99.90;;;;;;5011230;28;19924;-60
2021/11/28 10:08:47;;;;;;;;;;;4.10;99.90;;;;;;5010210;28;19914;-62
2021/11/28 10:11:18;;;;;;;;;;;4.10;99.90;;;;;;5009054;28;19949;-66
2021/11/28 10:13:47;;;;;;;;;;;4.10;99.90;;;;;;5008271;28;20020;-64
2021/11/28 10:16:13;;;;;;;;;;;4.00;99.90;;;;;;5010306;28;19953;-63
2021/11/28 10:18:39;;;;;;;;;;;4.10;99.90;;;;;;5008896;28;19913;-60
2021/11/28 10:21:05;;;;;;;;;;;4.00;99.90;;;;;;5009959;28;19920;-63
2021/11/28 10:23:30;;;;;;;;;;;4.10;99.90;;;;;;5008188;28;19917;-62
2021/11/28 10:26:13;;;;;;;;;;;4.00;99.90;;;;;;5010288;28;20337;-61
2021/11/28 10:28:57;;;;;;;;;;;4.10;99.90;;;;;;5009371;28;19978;-62
2021/11/28 10:31:22;;;;;;;;;;;4.00;99.90;;;;;;5010439;28;19918;-64
2021/11/28 10:33:48;;;;;;;;;;;3.90;99.90;;;;;;5011469;28;19956;-62
2021/11/28 10:36:14;;;;;;;;;;;4.00;99.90;;;;;;5013194;28;20270;-65
2021/11/28 10:38:41;;;;;;;;;;;3.90;99.90;;;;;;5010428;28;19914;-62
2021/11/28 10:41:26;;;;;;;;;;;3.80;99.90;;;;;;5008187;28;20015;-62
2021/11/28 10:43:51;;;;;;;;;;;3.70;99.90;;;;;;5007398;28;19968;-64
2021/11/28 10:46:32;;;;;;;;;;;3.70;99.90;;;;;;5008436;28;19945;-62
2021/11/28 10:49:09;;;;;;;;;;;3.70;99.90;;;;;;5006524;28;19917;-62
2021/11/28 10:51:37;;;;;;;;;;;3.70;99.90;;;;;;5007949;28;20282;-65
2021/11/28 10:54:21;;;;;;;;;;;3.60;99.90;;;;;;5009728;28;19921;-64
2021/11/28 10:56:48;;;;;;;;;;;3.60;99.90;;;;;;5008954;28;20293;-62
2021/11/28 10:59:16;;;;;;;;;;;3.60;99.90;;;;;;5009765;28;19921;-62
2021/11/28 11:01:41;;;;;;;;;;;3.70;99.90;;;;;;5009995;28;20051;-62
2021/11/28 11:04:16;;;;;;;;;;;3.70;99.90;;;;;;5010224;28;20008;-61
2021/11/28 11:06:42;;;;;;;;;;;3.70;99.90;;;;;;5019531;28;19909;-64
2021/11/28 11:09:18;;;;;;;;;;;3.70;99.90;;;;;;5017801;28;19983;-62
2021/11/28 11:11:43;;;;;;;;;;;3.80;99.90;;;;;;5007389;28;19917;-63
2021/11/28 11:14:09;;;;;;;;;;;3.90;99.90;;;;;;5012975;28;19913;-65
2021/11/28 11:16:40;;;;;;;;;;;3.90;99.90;;;;;;5011358;28;19909;-63
2021/11/28 11:19:23;;;;;;;;;;;3.90;99.90;;;;;;5009293;28;19910;-64
2021/11/28 11:21:58;;;;;;;;;;;3.90;99.90;;;;;;5010194;28;19953;-64
2021/11/28 11:24:24;;;;;;;;;;;3.90;99.90;;;;;;5010292;28;20455;-64
2021/11/28 11:26:50;;;;;;;;;;;4.00;99.90;;;;;;5009970;28;19910;-65
2021/11/28 11:29:15;;;;;;;;;;;4.00;99.90;;;;;;5010075;28;20385;-65
2021/11/28 11:31:42;;;;;;;;;;;4.10;99.90;;;;;;5010023;28;19916;-64
2021/11/28 11:34:24;;;;;;;;;;;4.10;99.90;;;;;;5010754;28;19910;-64
2021/11/28 11:36:57;;;;;;;;;;;4.20;99.90;;;;;;5010454;28;20385;-65
2021/11/28 11:39:24;;;;;;;;;;;4.30;99.90;;;;;;5013514;28;20698;-68
2021/11/28 11:41:50;;;;;;;;;;;4.30;99.90;;;;;;5010596;28;19909;-67
2021/11/28 11:44:17;;;;;;;;;;;4.30;99.90;;;;;;5010180;28;20263;-68
2021/11/28 11:46:45;;;;;;;;;;;4.30;99.90;;;;;;5010704;28;19964;-67
2021/11/28 11:49:14;;;;;;;;;;;4.30;99.90;;;;;;5010568;28;19932;-69
2021/11/28 11:51:41;;;;;;;;;;;4.30;99.90;;;;;;5011494;28;19910;-68
2021/11/28 11:54:14;;;;;;;;;;;4.30;99.90;;;;;;5009919;28;20453;-67
2021/11/28 11:56:40;;;;;;;;;;;4.30;99.90;;;;;;5008796;28;19929;-69
2021/11/28 11:59:10;;;;;;;;;;;4.40;99.90;;;;;;5010144;28;19933;-70
2021/11/28 12:01:36;;;;;;;;;;;4.30;99.90;;;;;;5021052;28;19928;-67
2021/11/28 12:04:02;;;;;;;;;;;4.30;99.90;;;;;;5022528;28;19964;-69
2021/11/28 12:06:40;;;;;;;;;;;4.30;99.90;;;;;;5007803;28;19922;-69
2021/11/28 12:09:21;;;;;;;;;;;4.30;99.90;;;;;;5008895;28;19917;-66
2021/11/28 12:12:00;;;;;;;;;;;4.30;99.90;;;;;;5010774;28;19945;-69
2021/11/28 12:14:26;;;;;;;;;;;4.20;99.90;;;;;;5007939;28;20085;-70
2021/11/28 12:16:51;;;;;;;;;;;4.20;99.90;;;;;;5008680;28;20793;-68
2021/11/28 12:19:35;;;;;;;;;;;4.20;99.90;;;;;;5008275;28;19948;-68
2021/11/28 12:22:00;;;;;;;;;;;4.20;99.90;;;;;;5007538;28;19914;-68
2021/11/28 12:24:28;;;;;;;;;;;4.30;99.90;;;;;;5012905;28;19925;-70
2021/11/28 12:26:57;;;;;;;;;;;4.20;99.90;;;;;;5009178;28;19913;-72
2021/11/28 12:29:24;;;;;;;;;;;4.30;99.90;;;;;;5009016;28;19914;-70
2021/11/28 12:31:50;;;;;;;;;;;4.30;99.90;;;;;;5009917;28;20341;-69
2021/11/28 12:34:16;;;;;;;;;;;4.50;99.90;;;;;;5009770;28;19910;-71
2021/11/28 12:37:02;;;;;;;;;;;4.50;99.90;;;;;;5009140;28;19922;-70
2021/11/28 12:39:34;;;;;;;;;;;4.70;99.90;;;;;;5009024;28;19976;-70
2021/11/28 12:42:10;;;;;;;;;;;4.60;99.90;;;;;;5009978;28;20329;-70
2021/11/28 12:44:37;;;;;;;;;;;4.60;99.90;;;;;;5009286;28;20171;-70
2021/11/28 12:47:09;;;;;;;;;;;4.60;99.90;;;;;;5008618;28;19917;-71
2021/11/28 12:49:34;;;;;;;;;;;4.70;99.90;;;;;;5008776;28;19909;-70
2021/11/28 12:52:18;;;;;;;;;;;4.60;99.90;;;;;;5013392;28;20297;-71
2021/11/28 12:54:45;;;;;;;;;;;4.60;99.90;;;;;;5005407;28;19917;-74
2021/11/28 12:57:20;;;;;;;;;;;4.80;99.90;;;;;;5003074;28;19914;-70
2021/11/28 13:00:04;;;;;;;;;;;4.80;99.90;;;;;;5009599;28;19920;-70
2021/11/28 13:02:43;;;;;;;;;;;4.70;99.90;;;;;;5010762;28;19940;-70
2021/11/28 13:05:26;;;;;;;;;;;4.70;99.90;;;;;;5013926;28;19967;-70
2021/11/28 13:07:52;;;;;;;;;;;4.70;99.90;;;;;;5010968;28;19910;-71
2021/11/28 13:10:17;;;;;;;;;;;4.80;99.90;;;;;;5009140;28;19990;-70
2021/11/28 13:12:43;;;;;;;;;;;4.60;99.90;;;;;;5009314;28;19914;-71
2021/11/28 13:15:16;;;;;;;;;;;4.60;99.90;;;;;;5009494;28;19963;-70
2021/11/28 13:17:42;;;;;;;;;;;4.50;99.90;;;;;;5007647;28;20370;-68
2021/11/28 13:20:07;;;;;;;;;;;4.50;99.90;;;;;;5008458;28;20232;-68
2021/11/28 13:22:36;;;;;;;;;;;4.60;99.90;;;;;;5008289;28;19914;-70
2021/11/28 13:25:21;;;;;;;;;;;4.60;99.90;;;;;;5009213;28;19914;-69
2021/11/28 13:27:47;;;;;;;;;;;4.50;99.90;;;;;;5009545;28;19940;-69
2021/11/28 13:30:18;;;;;;;;;;;4.50;99.90;;;;;;5009510;28;20366;-69
2021/11/28 13:32:43;;;;;;;;;;;4.40;99.90;;;;;;5014251;28;19916;-68
2021/11/28 13:35:13;;;;;;;;;;;4.40;99.90;;;;;;5023703;28;19913;-68
2021/11/28 13:37:38;;;;;;;;;;;4.40;99.90;;;;;;5009238;28;19909;-69
2021/11/28 13:40:09;;;;;;;;;;;4.50;99.90;;;;;;5008380;28;19936;-68
2021/11/28 13:42:44;;;;;;;;;;;4.50;99.90;;;;;;5013676;28;19973;-68
2021/11/28 13:45:13;;;;;;;;;;;4.50;99.90;;;;;;5029612;28;19932;-69
2021/11/28 13:47:39;;;;;;;;;;;4.60;99.90;;;;;;5013449;28;19981;-68
2021/11/28 13:50:09;;;;;;;;;;;4.60;99.90;;;;;;5010249;28;19917;-67
2021/11/28 13:52:35;;;;;;;;;;;4.60;99.90;;;;;;5008634;28;19910;-69
2021/11/28 13:55:01;;;;;;;;;;;4.60;99.90;;;;;;5010006;28;19909;-69
2021/11/28 13:57:27;;;;;;;;;;;4.60;99.90;;;;;;5008774;28;20074;-70
2021/11/28 13:59:53;;;;;;;;;;;4.60;99.90;;;;;;5009027;28;19913;-69
2021/11/28 14:02:23;;;;;;;;;;;4.50;99.90;;;;;;5008024;28;19916;-68
2021/11/28 14:04:52;;;;;;;;;;;4.50;99.90;;;;;;5010265;28;20367;-69
2021/11/28 14:07:23;;;;;;;;;;;4.50;99.90;;;;;;5039845;28;20048;-69
2021/11/28 14:09:50;;;;;;;;;;;4.50;99.90;;;;;;5008506;28;19916;-69
2021/11/28 14:12:17;;;;;;;;;;;4.50;99.90;;;;;;5008392;28;19917;-68
2021/11/28 14:14:54;;;;;;;;;;;4.50;99.90;;;;;;5024013;28;19914;-69
2021/11/28 14:17:19;;;;;;;;;;;4.60;99.90;;;;;;5008446;28;20008;-69
2021/11/28 14:19:45;;;;;;;;;;;4.60;99.90;;;;;;5010279;28;20075;-69
2021/11/28 14:22:29;;;;;;;;;;;4.70;99.90;;;;;;5011517;28;20015;-70
2021/11/28 14:25:13;;;;;;;;;;;4.70;99.90;;;;;;5020168;28;19910;-72
2021/11/28 14:27:38;;;;;;;;;;;4.60;99.90;;;;;;5033725;28;20016;-70
2021/11/28 14:30:04;;;;;;;;;;;4.60;99.90;;;;;;5032272;28;19917;-71
2021/11/28 14:32:29;;;;;;;;;;;4.70;99.90;;;;;;5022282;28;19910;-69
2021/11/28 14:35:15;;;;;;;;;;;4.80;99.90;;;;;;5015024;28;19920;-69